sensor_id;sensor_type;location;lat;lon;timestamp;pressure;altitude;pressure_sealevel;temperature;humidity
46129;BME280;31860;45.186;5.790;2023-02-28T00:00:21;99275.97;;;8.27;47.84
46129;BME280;31860;45.186;5.790;2023-02-28T00:02:47;99276.81;;;8.28;47.90
46129;BME280;31860;45.186;5.790;2023-02-28T00:05:15;99279.41;;;8.26;47.88
46129;BME280;31860;45.186;5.790;2023-02-28T00:07:41;99279.38;;;8.25;47.69
46129;BME280;31860;45.186;5.790;2023-02-28T00:10:12;99275.88;;;8.23;47.95
46129;BME280;31860;45.186;5.790;2023-02-28T00:12:39;99279.34;;;8.23;48.16
46129;BME280;31860;45.186;5.790;2023-02-28T00:15:06;99283.66;;;8.21;48.23
46129;BME280;31860;45.186;5.790;2023-02-28T00:17:32;99278.44;;;8.21;48.26
46129;BME280;31860;45.186;5.790;2023-02-28T00:19:58;99284.50;;;8.20;48.34
46129;BME280;31860;45.186;5.790;2023-02-28T00:22:35;99283.66;;;8.20;48.62
46129;BME280;31860;45.186;5.790;2023-02-28T00:25:00;99283.66;;;8.21;48.32
46129;BME280;31860;45.186;5.790;2023-02-28T00:27:26;99279.28;;;8.20;48.57
46129;BME280;31860;45.186;5.790;2023-02-28T00:29:51;99280.16;;;8.19;48.65
46129;BME280;31860;45.186;5.790;2023-02-28T00:32:19;99288.81;;;8.18;48.70
46129;BME280;31860;45.186;5.790;2023-02-28T00:34:44;99289.69;;;8.17;48.80
46129;BME280;31860;45.186;5.790;2023-02-28T00:37:10;99287.94;;;8.16;49.08
46129;BME280;31860;45.186;5.790;2023-02-28T00:39:39;99283.59;;;8.17;48.87
46129;BME280;31860;45.186;5.790;2023-02-28T00:42:05;99283.59;;;8.17;49.05
46129;BME280;31860;45.186;5.790;2023-02-28T00:44:32;99277.56;;;8.19;49.20
46129;BME280;31860;45.186;5.790;2023-02-28T00:46:58;99279.28;;;8.20;49.02
46129;BME280;31860;45.186;5.790;2023-02-28T00:49:24;99277.56;;;8.19;49.05
46129;BME280;31860;45.186;5.790;2023-02-28T00:51:50;99282.78;;;8.19;49.29
46129;BME280;31860;45.186;5.790;2023-02-28T00:54:16;99273.25;;;8.20;49.29
46129;BME280;31860;45.186;5.790;2023-02-28T00:56:42;99275.81;;;8.18;49.06
46129;BME280;31860;45.186;5.790;2023-02-28T00:59:08;99275.78;;;8.17;49.27
46129;BME280;31860;45.186;5.790;2023-02-28T01:01:33;99274.06;;;8.16;49.30
46129;BME280;31860;45.186;5.790;2023-02-28T01:03:59;99276.66;;;8.16;49.56
46129;BME280;31860;45.186;5.790;2023-02-28T01:06:24;99274.06;;;8.14;49.39
46129;BME280;31860;45.186;5.790;2023-02-28T01:08:50;99280.09;;;8.15;49.68
46129;BME280;31860;45.186;5.790;2023-02-28T01:11:17;99285.31;;;8.15;49.35
46129;BME280;31860;45.186;5.790;2023-02-28T01:13:44;99285.31;;;8.15;49.36
46129;BME280;31860;45.186;5.790;2023-02-28T01:16:10;99280.97;;;8.15;49.36
46129;BME280;31860;45.186;5.790;2023-02-28T01:18:36;99286.19;;;8.14;49.47
46129;BME280;31860;45.186;5.790;2023-02-28T01:21:07;99284.41;;;8.13;49.25
46129;BME280;31860;45.186;5.790;2023-02-28T01:23:33;99282.69;;;8.10;49.06
46129;BME280;31860;45.186;5.790;2023-02-28T01:26:06;99287.00;;;8.10;49.59
46129;BME280;31860;45.186;5.790;2023-02-28T01:28:32;99280.06;;;8.09;49.47
46129;BME280;31860;45.186;5.790;2023-02-28T01:30:58;99284.38;;;8.07;49.63
46129;BME280;31860;45.186;5.790;2023-02-28T01:33:23;99279.16;;;8.07;49.52
46129;BME280;31860;45.186;5.790;2023-02-28T01:35:49;99275.69;;;8.05;49.90
46129;BME280;31860;45.186;5.790;2023-02-28T01:38:14;99275.63;;;8.03;49.99
46129;BME280;31860;45.186;5.790;2023-02-28T01:40:40;99278.22;;;8.03;50.07
46129;BME280;31860;45.186;5.790;2023-02-28T01:43:20;99277.38;;;8.03;50.47
46129;BME280;31860;45.186;5.790;2023-02-28T01:45:46;99282.56;;;8.01;50.31
46129;BME280;31860;45.186;5.790;2023-02-28T01:48:11;99281.63;;;7.98;50.00
46129;BME280;31860;45.186;5.790;2023-02-28T01:50:40;99281.63;;;7.95;50.19
46129;BME280;31860;45.186;5.790;2023-02-28T01:53:10;99276.41;;;7.93;50.42
46129;BME280;31860;45.186;5.790;2023-02-28T01:55:37;99275.50;;;7.91;50.23
46129;BME280;31860;45.186;5.790;2023-02-28T01:58:04;99275.47;;;7.88;50.61
46129;BME280;31860;45.186;5.790;2023-02-28T02:00:32;99282.41;;;7.86;50.71
46129;BME280;31860;45.186;5.790;2023-02-28T02:03:00;99283.22;;;7.85;50.49
46129;BME280;31860;45.186;5.790;2023-02-28T02:05:28;99279.81;;;7.88;50.67
46129;BME280;31860;45.186;5.790;2023-02-28T02:07:58;99280.63;;;7.85;50.76
46129;BME280;31860;45.186;5.790;2023-02-28T02:10:33;99285.81;;;7.82;50.70
46129;BME280;31860;45.186;5.790;2023-02-28T02:27:16;99277.00;;;7.71;51.09
46129;BME280;31860;45.186;5.790;2023-02-28T02:32:56;99273.53;;;7.71;51.07
46129;BME280;31860;45.186;5.790;2023-02-28T02:35:43;99273.53;;;7.69;51.09
46129;BME280;31860;45.186;5.790;2023-02-28T02:38:18;99263.94;;;7.66;51.16
46129;BME280;31860;45.186;5.790;2023-02-28T02:41:03;99270.03;;;7.67;51.46
46129;BME280;31860;45.186;5.790;2023-02-28T02:43:33;99263.06;;;7.67;51.15
46129;BME280;31860;45.186;5.790;2023-02-28T02:46:14;99268.25;;;7.66;51.68
46129;BME280;31860;45.186;5.790;2023-02-28T02:48:43;99263.91;;;7.63;51.49
46129;BME280;31860;45.186;5.790;2023-02-28T02:51:13;99269.94;;;7.62;51.72
46129;BME280;31860;45.186;5.790;2023-02-28T02:53:52;99263.91;;;7.63;52.15
46129;BME280;31860;45.186;5.790;2023-02-28T02:56:22;99265.63;;;7.63;51.65
46129;BME280;31860;45.186;5.790;2023-02-28T02:58:50;99259.59;;;7.65;51.72
46129;BME280;31860;45.186;5.790;2023-02-28T03:01:20;99259.63;;;7.67;51.78
46129;BME280;31860;45.186;5.790;2023-02-28T03:03:55;99256.13;;;7.65;51.69
46129;BME280;31860;45.186;5.790;2023-02-28T03:06:21;99263.94;;;7.66;51.82
46129;BME280;31860;45.186;5.790;2023-02-28T03:08:47;99265.72;;;7.71;51.81
46129;BME280;31860;45.186;5.790;2023-02-28T03:11:14;99269.16;;;7.68;51.78
46129;BME280;31860;45.186;5.790;2023-02-28T03:16:34;99272.56;;;7.62;52.40
46129;BME280;31860;45.186;5.790;2023-02-28T03:19:33;99276.88;;;7.62;52.36
46129;BME280;31860;45.186;5.790;2023-02-28T03:24:36;99260.34;;;7.57;52.17
46129;BME280;31860;45.186;5.790;2023-02-28T03:27:10;99271.63;;;7.56;52.56
46129;BME280;31860;45.186;5.790;2023-02-28T03:29:41;99268.13;;;7.55;52.86
46129;BME280;31860;45.186;5.790;2023-02-28T03:32:25;99266.41;;;7.56;52.59
46129;BME280;31860;45.186;5.790;2023-02-28T03:35:00;99267.25;;;7.55;52.68
46129;BME280;31860;45.186;5.790;2023-02-28T03:37:31;99265.53;;;7.55;52.50
46129;BME280;31860;45.186;5.790;2023-02-28T03:40:13;99267.31;;;7.59;52.47
46129;BME280;31860;45.186;5.790;2023-02-28T03:42:43;99266.44;;;7.57;52.41
46129;BME280;31860;45.186;5.790;2023-02-28T03:45:16;99267.25;;;7.55;52.58
46129;BME280;31860;45.186;5.790;2023-02-28T03:47:45;99268.16;;;7.57;52.34
46129;BME280;31860;45.186;5.790;2023-02-28T03:52:53;99265.56;;;7.57;52.54
46129;BME280;31860;45.186;5.790;2023-02-28T03:55:25;99268.16;;;7.57;52.51
46129;BME280;31860;45.186;5.790;2023-02-28T03:58:15;99275.03;;;7.53;52.71
46129;BME280;31860;45.186;5.790;2023-02-28T04:00:57;99270.69;;;7.52;52.70
46129;BME280;31860;45.186;5.790;2023-02-28T04:03:24;99268.94;;;7.51;52.76
46129;BME280;31860;45.186;5.790;2023-02-28T04:05:54;99270.66;;;7.51;52.62
46129;BME280;31860;45.186;5.790;2023-02-28T04:08:22;99277.56;;;7.50;52.56
46129;BME280;31860;45.186;5.790;2023-02-28T04:10:57;99280.16;;;7.49;53.09
46129;BME280;31860;45.186;5.790;2023-02-28T04:13:25;99277.56;;;7.50;52.66
46129;BME280;31860;45.186;5.790;2023-02-28T04:15:51;99290.56;;;7.49;52.68
46129;BME280;31860;45.186;5.790;2023-02-28T04:18:16;99285.34;;;7.47;52.73
46129;BME280;31860;45.186;5.790;2023-02-28T04:20:42;99292.25;;;7.47;52.85
46129;BME280;31860;45.186;5.790;2023-02-28T04:23:07;99297.50;;;7.48;52.79
46129;BME280;31860;45.186;5.790;2023-02-28T04:25:33;99293.16;;;7.49;52.84
46129;BME280;31860;45.186;5.790;2023-02-28T04:27:58;99297.50;;;7.48;52.66
46129;BME280;31860;45.186;5.790;2023-02-28T04:30:23;99300.06;;;7.47;52.80
46129;BME280;31860;45.186;5.790;2023-02-28T04:32:49;99301.75;;;7.43;53.04
46129;BME280;31860;45.186;5.790;2023-02-28T04:35:14;99305.19;;;7.41;53.30
46129;BME280;31860;45.186;5.790;2023-02-28T04:37:40;99309.44;;;7.36;53.33
46129;BME280;31860;45.186;5.790;2023-02-28T04:40:06;99306.81;;;7.34;53.32
46129;BME280;31860;45.186;5.790;2023-02-28T04:42:32;99310.31;;;7.36;53.23
46129;BME280;31860;45.186;5.790;2023-02-28T04:45:02;99312.88;;;7.33;53.46
46129;BME280;31860;45.186;5.790;2023-02-28T04:47:27;99305.94;;;7.34;53.37
46129;BME280;31860;45.186;5.790;2023-02-28T04:49:53;99312.00;;;7.34;53.43
46129;BME280;31860;45.186;5.790;2023-02-28T04:52:18;99312.88;;;7.33;53.40
46129;BME280;31860;45.186;5.790;2023-02-28T04:54:44;99309.38;;;7.31;53.59
46129;BME280;31860;45.186;5.790;2023-02-28T04:57:10;99315.41;;;7.32;53.45
46129;BME280;31860;45.186;5.790;2023-02-28T04:59:35;99307.63;;;7.30;53.66
46129;BME280;31860;45.186;5.790;2023-02-28T05:02:01;99324.06;;;7.29;53.79
46129;BME280;31860;45.186;5.790;2023-02-28T05:04:34;99320.59;;;7.29;53.52
46129;BME280;31860;45.186;5.790;2023-02-28T05:07:00;99317.09;;;7.27;53.96
46129;BME280;31860;45.186;5.790;2023-02-28T05:09:26;99317.88;;;7.23;53.93
46129;BME280;31860;45.186;5.790;2023-02-28T05:11:53;99324.88;;;7.27;53.83
46129;BME280;31860;45.186;5.790;2023-02-28T05:14:18;99326.59;;;7.26;54.05
46129;BME280;31860;45.186;5.790;2023-02-28T05:16:44;99333.53;;;7.26;53.78
46129;BME280;31860;45.186;5.790;2023-02-28T05:19:10;99321.34;;;7.22;54.11
46129;BME280;31860;45.186;5.790;2023-02-28T05:21:38;99331.78;;;7.25;54.02
46129;BME280;31860;45.186;5.790;2023-02-28T05:24:11;99323.16;;;7.26;54.13
46129;BME280;31860;45.186;5.790;2023-02-28T05:26:39;99326.59;;;7.26;54.13
46129;BME280;31860;45.186;5.790;2023-02-28T05:29:06;99327.50;;;7.30;54.00
46129;BME280;31860;45.186;5.790;2023-02-28T05:31:32;99334.53;;;7.35;54.01
46129;BME280;31860;45.186;5.790;2023-02-28T05:33:58;99321.53;;;7.35;53.80
46129;BME280;31860;45.186;5.790;2023-02-28T05:36:23;99329.38;;;7.38;53.95
46129;BME280;31860;45.186;5.790;2023-02-28T05:38:49;99327.63;;;7.37;53.85
46129;BME280;31860;45.186;5.790;2023-02-28T05:41:16;99324.19;;;7.37;53.83
46129;BME280;31860;45.186;5.790;2023-02-28T05:43:42;99325.00;;;7.36;53.64
46129;BME280;31860;45.186;5.790;2023-02-28T05:46:10;99325.91;;;7.36;53.90
46129;BME280;31860;45.186;5.790;2023-02-28T05:48:37;99325.91;;;7.36;53.86
46129;BME280;31860;45.186;5.790;2023-02-28T05:51:04;99313.81;;;7.38;53.75
46129;BME280;31860;45.186;5.790;2023-02-28T05:53:30;99317.28;;;7.40;53.72
46129;BME280;31860;45.186;5.790;2023-02-28T05:55:56;99311.22;;;7.38;53.87
46129;BME280;31860;45.186;5.790;2023-02-28T05:58:22;99313.81;;;7.38;53.83
46129;BME280;31860;45.186;5.790;2023-02-28T06:00:49;99318.94;;;7.35;54.19
46129;BME280;31860;45.186;5.790;2023-02-28T06:03:15;99324.19;;;7.38;53.61
46129;BME280;31860;45.186;5.790;2023-02-28T06:05:40;99321.53;;;7.34;53.86
46129;BME280;31860;45.186;5.790;2023-02-28T06:08:05;99321.53;;;7.34;53.96
46129;BME280;31860;45.186;5.790;2023-02-28T06:10:33;99328.47;;;7.33;54.02
46129;BME280;31860;45.186;5.790;2023-02-28T06:13:03;99324.06;;;7.29;53.85
46129;BME280;31860;45.186;5.790;2023-02-28T06:15:29;99337.88;;;7.28;53.91
46129;BME280;31860;45.186;5.790;2023-02-28T06:17:55;99331.88;;;7.31;54.08
46129;BME280;31860;45.186;5.790;2023-02-28T06:20:22;99342.28;;;7.32;54.11
46129;BME280;31860;45.186;5.790;2023-02-28T06:22:48;99348.34;;;7.33;54.13
46129;BME280;31860;45.186;5.790;2023-02-28T06:25:15;99348.34;;;7.33;54.02
46129;BME280;31860;45.186;5.790;2023-02-28T06:27:41;99339.59;;;7.26;54.37
46129;BME280;31860;45.186;5.790;2023-02-28T06:30:09;99346.44;;;7.21;54.62
46129;BME280;31860;45.186;5.790;2023-02-28T06:32:34;99354.16;;;7.17;54.57
46129;BME280;31860;45.186;5.790;2023-02-28T06:35:01;99357.59;;;7.14;54.68
46129;BME280;31860;45.186;5.790;2023-02-28T06:37:26;99360.09;;;7.08;54.70
46129;BME280;31860;45.186;5.790;2023-02-28T06:39:53;99372.13;;;7.03;54.65
46129;BME280;31860;45.186;5.790;2023-02-28T06:42:21;99366.06;;;7.04;54.91
46129;BME280;31860;45.186;5.790;2023-02-28T06:44:47;99372.09;;;7.02;55.00
46129;BME280;31860;45.186;5.790;2023-02-28T06:47:12;99362.56;;;7.01;55.16
46129;BME280;31860;45.186;5.790;2023-02-28T06:49:37;99371.16;;;6.98;55.48
46129;BME280;31860;45.186;5.790;2023-02-28T06:52:04;99377.22;;;6.97;55.10
46129;BME280;31860;45.186;5.790;2023-02-28T06:54:29;99377.13;;;6.94;54.97
46129;BME280;31860;45.186;5.790;2023-02-28T06:56:55;99381.50;;;6.95;55.24
46129;BME280;31860;45.186;5.790;2023-02-28T06:59:23;99384.94;;;6.94;55.49
46129;BME280;31860;45.186;5.790;2023-02-28T07:01:52;99394.41;;;6.92;55.55
46129;BME280;31860;45.186;5.790;2023-02-28T07:04:17;99384.94;;;6.94;55.69
46129;BME280;31860;45.186;5.790;2023-02-28T07:06:43;99385.84;;;6.96;55.60
46129;BME280;31860;45.186;5.790;2023-02-28T07:09:08;99393.63;;;6.98;55.09
46129;BME280;31860;45.186;5.790;2023-02-28T07:11:33;99398.84;;;6.98;55.44
46129;BME280;31860;45.186;5.790;2023-02-28T07:13:59;99403.19;;;6.97;55.55
46129;BME280;31860;45.186;5.790;2023-02-28T07:16:25;99411.88;;;7.01;55.46
46129;BME280;31860;45.186;5.790;2023-02-28T07:18:53;99405.91;;;7.05;55.41
46129;BME280;31860;45.186;5.790;2023-02-28T07:21:19;99411.13;;;7.08;55.45
46129;BME280;31860;45.186;5.790;2023-02-28T07:23:45;99412.84;;;7.07;55.55
46129;BME280;31860;45.186;5.790;2023-02-28T07:26:13;99413.81;;;7.11;55.48
46129;BME280;31860;45.186;5.790;2023-02-28T07:28:41;99419.03;;;7.14;55.45
46129;BME280;31860;45.186;5.790;2023-02-28T07:31:08;99419.94;;;7.16;55.70
46129;BME280;31860;45.186;5.790;2023-02-28T07:33:34;99419.13;;;7.18;55.99
46129;BME280;31860;45.186;5.790;2023-02-28T07:36:04;99404.41;;;7.20;55.87
46129;BME280;31860;45.186;5.790;2023-02-28T07:38:33;99412.31;;;7.25;56.15
46129;BME280;31860;45.186;5.790;2023-02-28T07:40:59;99412.31;;;7.25;55.92
46129;BME280;31860;45.186;5.790;2023-02-28T07:43:24;99422.72;;;7.26;56.17
46129;BME280;31860;45.186;5.790;2023-02-28T07:45:50;99414.09;;;7.27;56.28
46129;BME280;31860;45.186;5.790;2023-02-28T07:48:15;99414.94;;;7.28;55.84
46129;BME280;31860;45.186;5.790;2023-02-28T07:50:41;99417.59;;;7.29;56.12
46129;BME280;31860;45.186;5.790;2023-02-28T07:53:06;99413.25;;;7.30;56.20
46129;BME280;31860;45.186;5.790;2023-02-28T07:55:32;99417.59;;;7.31;56.35
46129;BME280;31860;45.186;5.790;2023-02-28T07:57:57;99422.84;;;7.34;55.79
46129;BME280;31860;45.186;5.790;2023-02-28T08:00:23;99426.34;;;7.36;56.28
46129;BME280;31860;45.186;5.790;2023-02-28T08:02:49;99427.22;;;7.36;56.22
46129;BME280;31860;45.186;5.790;2023-02-28T08:05:14;99425.53;;;7.38;56.19
46129;BME280;31860;45.186;5.790;2023-02-28T08:07:40;99422.91;;;7.38;56.05
46129;BME280;31860;45.186;5.790;2023-02-28T08:10:06;99422.03;;;7.38;56.29
46129;BME280;31860;45.186;5.790;2023-02-28T08:12:31;99423.81;;;7.39;56.96
46129;BME280;31860;45.186;5.790;2023-02-28T08:14:57;99432.50;;;7.42;57.18
46129;BME280;31860;45.186;5.790;2023-02-28T08:17:22;99428.25;;;7.46;57.43
46129;BME280;31860;45.186;5.790;2023-02-28T08:19:48;99428.25;;;7.47;57.52
46129;BME280;31860;45.186;5.790;2023-02-28T08:22:13;99432.63;;;7.50;58.00
46129;BME280;31860;45.186;5.790;2023-02-28T08:24:41;99439.56;;;7.51;58.33
46129;BME280;31860;45.186;5.790;2023-02-28T08:27:06;99430.97;;;7.55;58.18
46129;BME280;31860;45.186;5.790;2023-02-28T08:29:32;99436.22;;;7.58;58.41
46129;BME280;31860;45.186;5.790;2023-02-28T08:31:57;99438.00;;;7.60;57.97
46129;BME280;31860;45.186;5.790;2023-02-28T08:34:23;99436.31;;;7.65;57.89
46129;BME280;31860;45.186;5.790;2023-02-28T08:36:49;99445.06;;;7.69;57.39
46129;BME280;31860;45.186;5.790;2023-02-28T08:39:14;99446.00;;;7.74;56.87
46129;BME280;31860;45.186;5.790;2023-02-28T08:41:44;99442.53;;;7.75;56.60
46129;BME280;31860;45.186;5.790;2023-02-28T08:44:09;99443.44;;;7.77;56.32
46129;BME280;31860;45.186;5.790;2023-02-28T08:46:35;99440.88;;;7.79;56.20
46129;BME280;31860;45.186;5.790;2023-02-28T08:49:00;99441.81;;;7.84;55.96
46129;BME280;31860;45.186;5.790;2023-02-28T08:51:27;99441.00;;;7.86;55.77
46129;BME280;31860;45.186;5.790;2023-02-28T08:53:55;99443.63;;;7.89;55.47
46129;BME280;31860;45.186;5.790;2023-02-28T08:56:21;99435.84;;;7.89;55.66
46129;BME280;31860;45.186;5.790;2023-02-28T08:58:48;99437.63;;;7.92;55.60
46129;BME280;31860;45.186;5.790;2023-02-28T09:01:19;99440.22;;;7.92;55.39
46129;BME280;31860;45.186;5.790;2023-02-28T09:03:46;99442.84;;;7.95;55.41
46129;BME280;31860;45.186;5.790;2023-02-28T09:06:13;99442.88;;;7.96;55.17
46129;BME280;31860;45.186;5.790;2023-02-28T09:08:40;99442.03;;;7.99;55.05
46129;BME280;31860;45.186;5.790;2023-02-28T09:11:06;99449.84;;;7.99;55.22
46129;BME280;31860;45.186;5.790;2023-02-28T09:13:32;99449.84;;;8.00;54.87
46129;BME280;31860;45.186;5.790;2023-02-28T09:15:59;99451.56;;;8.00;54.68
46129;BME280;31860;45.186;5.790;2023-02-28T09:18:25;99449.03;;;8.01;54.67
46129;BME280;31860;45.186;5.790;2023-02-28T09:20:52;99455.06;;;8.02;54.38
46129;BME280;31860;45.186;5.790;2023-02-28T09:23:18;99459.47;;;8.04;54.51
46129;BME280;31860;45.186;5.790;2023-02-28T09:25:49;99449.06;;;8.04;54.48
46129;BME280;31860;45.186;5.790;2023-02-28T09:28:16;99453.44;;;8.08;54.69
46129;BME280;31860;45.186;5.790;2023-02-28T09:30:44;99455.19;;;8.09;54.65
46129;BME280;31860;45.186;5.790;2023-02-28T09:33:10;99450.88;;;8.11;54.46
46129;BME280;31860;45.186;5.790;2023-02-28T09:35:37;99455.25;;;8.14;54.60
46129;BME280;31860;45.186;5.790;2023-02-28T09:38:03;99461.38;;;8.17;54.49
46129;BME280;31860;45.186;5.790;2023-02-28T09:40:30;99455.38;;;8.21;54.04
46129;BME280;31860;45.186;5.790;2023-02-28T09:42:57;99457.97;;;8.23;53.91
46129;BME280;31860;45.186;5.790;2023-02-28T09:45:33;99455.38;;;8.23;53.66
46129;BME280;31860;45.186;5.790;2023-02-28T09:48:04;99457.97;;;8.23;53.83
46129;BME280;31860;45.186;5.790;2023-02-28T09:50:54;99465.00;;;8.25;53.60
46129;BME280;31860;45.186;5.790;2023-02-28T09:53:31;99457.19;;;8.27;53.57
46129;BME280;31860;45.186;5.790;2023-02-28T09:56:04;99458.97;;;8.29;53.35
46129;BME280;31860;45.186;5.790;2023-02-28T09:58:48;99462.50;;;8.34;53.15
46129;BME280;31860;45.186;5.790;2023-02-28T10:01:22;99476.41;;;8.36;52.92
46129;BME280;31860;45.186;5.790;2023-02-28T10:03:59;99466.03;;;8.41;53.17
46129;BME280;31860;45.186;5.790;2023-02-28T10:06:42;99471.28;;;8.42;53.13
46129;BME280;31860;45.186;5.790;2023-02-28T10:09:19;99459.19;;;8.44;53.22
46129;BME280;31860;45.186;5.790;2023-02-28T10:11:48;99465.31;;;8.49;53.09
46129;BME280;31860;45.186;5.790;2023-02-28T10:14:20;99467.03;;;8.50;53.09
46129;BME280;31860;45.186;5.790;2023-02-28T10:16:56;99468.81;;;8.54;53.19
46129;BME280;31860;45.186;5.790;2023-02-28T10:19:44;99473.19;;;8.55;53.08
46129;BME280;31860;45.186;5.790;2023-02-28T10:22:21;99470.59;;;8.57;52.87
46129;BME280;31860;45.186;5.790;2023-02-28T10:24:50;99475.00;;;8.59;52.96
46129;BME280;31860;45.186;5.790;2023-02-28T10:27:24;99465.47;;;8.62;52.88
46129;BME280;31860;45.186;5.790;2023-02-28T10:29:55;99461.16;;;8.65;52.76
46129;BME280;31860;45.186;5.790;2023-02-28T10:35:14;99461.22;;;8.71;52.97
46129;BME280;31860;45.186;5.790;2023-02-28T10:37:41;99468.22;;;8.75;53.02
46129;BME280;31860;45.186;5.790;2023-02-28T10:40:26;99473.47;;;8.78;52.84
46129;BME280;31860;45.186;5.790;2023-02-28T10:43:19;99476.97;;;8.80;52.76
46129;BME280;31860;45.186;5.790;2023-02-28T10:51:11;99477.88;;;8.85;52.55
46129;BME280;31860;45.186;5.790;2023-02-28T10:53:45;99471.84;;;8.89;52.09
46129;BME280;31860;45.186;5.790;2023-02-28T10:58:54;99478.78;;;8.87;51.90
46129;BME280;31860;45.186;5.790;2023-02-28T11:03:57;99471.84;;;8.89;51.74
46129;BME280;31860;45.186;5.790;2023-02-28T11:06:29;99466.66;;;8.91;51.84
46129;BME280;31860;45.186;5.790;2023-02-28T11:08:57;99462.31;;;8.91;51.92
46129;BME280;31860;45.186;5.790;2023-02-28T11:11:25;99464.06;;;8.94;51.99
46129;BME280;31860;45.186;5.790;2023-02-28T11:13:57;99458.91;;;8.95;52.00
46129;BME280;31860;45.186;5.790;2023-02-28T11:16:36;99459.75;;;8.96;51.85
46129;BME280;31860;45.186;5.790;2023-02-28T11:19:04;99457.19;;;8.97;51.71
46129;BME280;31860;45.186;5.790;2023-02-28T11:21:34;99453.72;;;8.98;51.77
46129;BME280;31860;45.186;5.790;2023-02-28T11:24:28;99453.72;;;9.00;51.42
46129;BME280;31860;45.186;5.790;2023-02-28T11:26:52;99445.91;;;9.01;51.33
46129;BME280;31860;45.186;5.790;2023-02-28T11:34:34;99430.34;;;9.07;51.20
46129;BME280;31860;45.186;5.790;2023-02-28T11:37:01;99428.63;;;9.09;51.49
46129;BME280;31860;45.186;5.790;2023-02-28T11:39:31;99427.78;;;9.10;50.90
46129;BME280;31860;45.186;5.790;2023-02-28T11:52:52;99412.31;;;9.27;50.83
46129;BME280;31860;45.186;5.790;2023-02-28T11:58:10;99397.56;;;9.33;50.56
46129;BME280;31860;45.186;5.790;2023-02-28T12:11:51;99402.88;;;9.42;50.93
46129;BME280;31860;45.186;5.790;2023-02-28T12:17:22;99394.25;;;9.49;51.33
46129;BME280;31860;45.186;5.790;2023-02-28T12:28:49;99394.25;;;9.52;50.51
46129;BME280;31860;45.186;5.790;2023-02-28T12:31:26;99385.59;;;9.53;50.10
46129;BME280;31860;45.186;5.790;2023-02-28T12:33:58;99383.81;;;9.52;50.13
46129;BME280;31860;45.186;5.790;2023-02-28T12:36:25;99386.44;;;9.52;50.38
46129;BME280;31860;45.186;5.790;2023-02-28T12:38:58;99381.22;;;9.54;50.36
46129;BME280;31860;45.186;5.790;2023-02-28T12:41:39;99391.69;;;9.58;50.17
46129;BME280;31860;45.186;5.790;2023-02-28T12:44:23;99384.75;;;9.57;49.61
46129;BME280;31860;45.186;5.790;2023-02-28T12:46:54;99369.94;;;9.58;49.76
46129;BME280;31860;45.186;5.790;2023-02-28T12:52:06;99361.28;;;9.59;50.33
46129;BME280;31860;45.186;5.790;2023-02-28T12:54:54;99359.56;;;9.61;50.24
46129;BME280;31860;45.186;5.790;2023-02-28T12:57:36;99355.19;;;9.62;49.40
46129;BME280;31860;45.186;5.790;2023-02-28T13:00:25;99346.53;;;9.64;49.40
46129;BME280;31860;45.186;5.790;2023-02-28T13:09:11;99342.19;;;9.68;48.93
46129;BME280;31860;45.186;5.790;2023-02-28T13:11:45;99343.09;;;9.70;49.38
46129;BME280;31860;45.186;5.790;2023-02-28T13:14:24;99337.88;;;9.70;49.23
46129;BME280;31860;45.186;5.790;2023-02-28T13:19:33;99321.38;;;9.74;49.18
46129;BME280;31860;45.186;5.790;2023-02-28T13:22:00;99323.09;;;9.73;49.17
46129;BME280;31860;45.186;5.790;2023-02-28T13:24:37;99317.88;;;9.73;48.94
46129;BME280;31860;45.186;5.790;2023-02-28T13:29:35;99316.16;;;9.72;48.25
46129;BME280;31860;45.186;5.790;2023-02-28T13:34:41;99328.31;;;9.72;48.29
46129;BME280;31860;45.186;5.790;2023-02-28T13:39:52;99317.00;;;9.70;48.29
46129;BME280;31860;45.186;5.790;2023-02-28T13:47:38;99322.25;;;9.73;48.46
46129;BME280;31860;45.186;5.790;2023-02-28T13:55:26;99319.69;;;9.80;48.62
46129;BME280;31860;45.186;5.790;2023-02-28T14:00:35;99323.16;;;9.81;47.79
46129;BME280;31860;45.186;5.790;2023-02-28T14:05:34;99320.53;;;9.79;48.24
46129;BME280;31860;45.186;5.790;2023-02-28T14:08:15;99318.81;;;9.78;47.81
46129;BME280;31860;45.186;5.790;2023-02-28T14:10:45;99314.44;;;9.79;47.84
46129;BME280;31860;45.186;5.790;2023-02-28T14:16:03;99311.84;;;9.77;48.14
46129;BME280;31860;45.186;5.790;2023-02-28T14:18:34;99311.84;;;9.79;48.25
46129;BME280;31860;45.186;5.790;2023-02-28T14:21:29;99312.72;;;9.78;47.81
46129;BME280;31860;45.186;5.790;2023-02-28T14:24:19;99311.84;;;9.79;48.26
46129;BME280;31860;45.186;5.790;2023-02-28T14:32:22;99307.53;;;9.82;48.13
46129;BME280;31860;45.186;5.790;2023-02-28T14:37:38;99313.59;;;9.84;48.74
46129;BME280;31860;45.186;5.790;2023-02-28T14:40:12;99313.59;;;9.84;48.44
46129;BME280;31860;45.186;5.790;2023-02-28T14:42:39;99318.81;;;9.83;48.31
46129;BME280;31860;45.186;5.790;2023-02-28T14:45:21;99313.59;;;9.83;47.94
46129;BME280;31860;45.186;5.790;2023-02-28T14:47:49;99323.19;;;9.82;47.93
46129;BME280;31860;45.186;5.790;2023-02-28T14:50:24;99317.94;;;9.79;47.68
46129;BME280;31860;45.186;5.790;2023-02-28T14:52:53;99316.16;;;9.77;48.23
46129;BME280;31860;45.186;5.790;2023-02-28T14:55:24;99315.31;;;9.76;48.12
46129;BME280;31860;45.186;5.790;2023-02-28T14:57:56;99317.94;;;9.75;48.24
46129;BME280;31860;45.186;5.790;2023-02-28T15:00:27;99309.22;;;9.74;48.47
46129;BME280;31860;45.186;5.790;2023-02-28T15:02:54;99317.03;;;9.74;48.17
46129;BME280;31860;45.186;5.790;2023-02-28T15:05:29;99314.41;;;9.71;48.52
46129;BME280;31860;45.186;5.790;2023-02-28T15:08:13;99319.66;;;9.73;48.38
46129;BME280;31860;45.186;5.790;2023-02-28T15:10:43;99317.88;;;9.73;48.67
46129;BME280;31860;45.186;5.790;2023-02-28T15:13:14;99324.88;;;9.73;48.24
46129;BME280;31860;45.186;5.790;2023-02-28T15:15:45;99325.72;;;9.73;48.04
46129;BME280;31860;45.186;5.790;2023-02-28T15:18:25;99329.19;;;9.71;47.95
46129;BME280;31860;45.186;5.790;2023-02-28T15:20:55;99326.56;;;9.69;48.28
46129;BME280;31860;45.186;5.790;2023-02-28T15:23:22;99324.81;;;9.67;48.78
46129;BME280;31860;45.186;5.790;2023-02-28T15:25:51;99330.91;;;9.67;48.75
46129;BME280;31860;45.186;5.790;2023-02-28T15:28:20;99330.91;;;9.67;48.46